Hauptseite
METAR-TAF:

METAR-TAF

Flughäfen :

Dschidda, Saudi-Arabien

Internationaler König-Abd-al-Aziz-Flughafen

Breite: 21-42N, Länge: 039-11E, Höhe: 15 m

Beobachtung

Neuester Wetterbericht von vor 44 Minuten, um 14:00 UTC
Wind 13 kt aus Nord/Nordwest
Temperatur 28°C
Luftfeuchtigkeit 42%
Luftdruck 1012 hPa
Sichtweite 10 km oder mehr
keine Wolken unter 1500 m und keine Kumulonimbus oder Gewitterwolken

METAR: OEJN 241400Z 34013KT CAVOK 28/14 Q1012 NOSIG

Zeit: 17:44 (14:44 UTC)

Prognose

Neuester Wetterbericht von vor 3 Stunden und 44 Minuten, um 11:00 UTC
Gültige Prognose vom 24 um 12 UTC bis 25 um 18 UTC
Wind 6 kt aus Nord, Böen bis zu 16 kt
Sichtweite 10 km oder mehr
keine Wolken unter 1500 m und keine Kumulonimbus oder Gewitterwolken
Übergehend zu
vom 24 um 18 UTC bis 24 um 20 UTC
Wind 6 kt aus Nord/Nordost

TAF: OEJN 241100Z 2412/2518 35006G16KT CAVOK BECMG 2418/2420 02006KT

Wetterbeobachtungen und Prognosen von mehr als 4000 Flughäfen (METAR und TAF Bericht).

Die verfügbaren Stationen werden durch gelbe und rote Markierungen auf der Karte dargestellt.

Führen Sie die Maus auf sie, um den Namen der Station zu sehen.

Darauf klicken, um die Beobachtung von Wetterbeobachtungen und Prognosen zu sehen.

Um die Karte zu ändern : klicken Sie auf den grünen Tasten mit einem schwarzen Kreuz Zum Vergrößern, auf den grünen Button mit einem Gedankenstrich zu verkleinern, oder auf die grünen Pfeile für benachbarte Karten.


METAR-TAF: